Terminal Aerodrome Forecast
Issued by NWS

Home | Current Version | Previous Version | Text Only | Print | Product List | Glossary On
Versions: 1 2 3 4 5 6 7 8 9 10 11 12 13 14
000
FTUS45 KVEF 011410 AAA
TAFBIH
TAF AMD
KBIH 011410Z 0114/0212 16025G35KT P6SM VCTS SCT120CB BKN140
     FM011700 16010KT P6SM SCT120 BKN150
     FM020300 33006KT P6SM FEW120 SCT200=

USA.gov is the U.S. government's official web portal to all federal, state and local government web resources and services.